Time;durP1;ratioP1;P1;durP2;ratioP2;P2;SDS_P1;SDS_P2;PMS_P1;PMS_P2;Temp;Humidity;BMP_temperature;BMP_pressure;BME280_temperature;BME280_humidity;BME280_pressure;Samples;Min_cycle;Max_cycle;Signal;HPM_P1;HPM_P2
2024/04/08 00:01:52;;;;;;;5.68;2.80;;;435.30;2201.60;;;;;;5079720;28;20016;-76
2024/04/08 00:04:18;;;;;;;4.50;3.67;;;435.30;2201.60;;;;;;5080460;28;20512;-75
2024/04/08 00:06:44;;;;;;;5.88;2.97;;;435.40;2176.00;;;;;;5070490;28;20033;-75
2024/04/08 00:09:10;;;;;;;5.05;3.40;;;435.30;2201.60;;;;;;5071490;28;20037;-76
2024/04/08 00:11:36;;;;;;;5.00;3.20;;;435.20;2201.60;;;;;;5076988;28;20016;-75
2024/04/08 00:14:02;;;;;;;7.18;3.60;;;410.50;2227.20;;;;;;5079459;28;20024;-76
2024/04/08 00:16:29;;;;;;;7.22;3.20;;;410.50;2227.20;;;;;;5076939;28;20547;-75
2024/04/08 00:18:55;;;;;;;5.20;3.60;;;435.30;2227.20;;;;;;5078872;28;20039;-76
2024/04/08 00:21:21;;;;;;;5.10;3.78;;;410.40;2252.80;;;;;;5072095;28;20021;-75
2024/04/08 00:23:48;;;;;;;8.55;4.57;;;410.40;2252.80;;;;;;5071746;28;20376;-76
2024/04/08 00:26:14;;;;;;;10.10;4.15;;;410.30;2278.40;;;;;;5072998;28;20121;-78
2024/04/08 00:28:41;;;;;;;9.40;4.05;;;410.20;2278.40;;;;;;5083890;28;21117;-76
2024/04/08 00:31:08;;;;;;;9.18;3.90;;;410.20;2304.00;;;;;;5081299;28;20023;-76
2024/04/08 00:33:35;;;;;;;7.40;3.97;;;410.20;2304.00;;;;;;5077024;28;20028;-76
2024/04/08 00:36:02;;;;;;;8.68;4.10;;;410.10;2304.00;;;;;;5080580;28;20024;-76
2024/04/08 00:38:28;;;;;;;7.32;4.25;;;410.20;2278.40;;;;;;5074077;28;20053;-76
2024/04/08 00:40:54;;;;;;;7.47;3.47;;;410.20;2278.40;;;;;;5071030;28;20043;-77
2024/04/08 00:43:20;;;;;;;5.53;3.78;;;410.20;2252.80;;;;;;5071143;28;20375;-76
2024/04/08 00:45:47;;;;;;;6.22;4.13;;;410.20;2227.20;;;;;;5071321;28;20032;-76
2024/04/08 00:48:17;;;;;;;5.45;3.22;;;410.20;2252.80;;;;;;5071075;28;20052;-75
2024/04/08 00:50:50;;;;;;;11.68;3.90;;;410.20;2252.80;;;;;;5082668;28;20081;-77
2024/04/08 00:53:17;;;;;;;5.03;3.67;;;410.20;2227.20;;;;;;5071184;28;20012;-78
2024/04/08 00:55:46;;;;;;;5.38;3.72;;;410.20;2227.20;;;;;;5070060;28;20058;-77
2024/04/08 00:58:14;;;;;;;5.40;3.13;;;410.20;2227.20;;;;;;5070519;28;20048;-77
2024/04/08 01:00:40;;;;;;;6.18;3.30;;;410.20;2227.20;;;;;;5071750;28;20025;-77
2024/04/08 01:03:07;;;;;;;4.88;2.88;;;410.20;2201.60;;;;;;5077611;28;20015;-77
2024/04/08 01:05:34;;;;;;;6.07;2.88;;;410.20;2201.60;;;;;;5087239;28;20028;-76
2024/04/08 01:08:01;;;;;;;4.07;2.75;;;410.00;2227.20;;;;;;5079869;28;20020;-81
2024/04/08 01:10:27;;;;;;;4.85;3.03;;;410.00;2227.20;;;;;;5090683;28;20020;-80
2024/04/08 01:12:53;;;;;;;6.95;3.38;;;409.90;2252.80;;;;;;5089431;28;20136;-80
2024/04/08 01:15:19;;;;;;;6.20;3.35;;;410.00;2227.20;;;;;;5090221;28;20055;-83
2024/04/08 01:17:55;;;;;;;5.97;2.67;;;409.90;2227.20;;;;;;5089550;28;20485;-81
2024/04/08 01:20:20;;;;;;;6.28;2.72;;;410.00;2227.20;;;;;;5090078;28;20047;-78
2024/04/08 01:22:48;;;;;;;5.07;2.85;;;409.90;2227.20;;;;;;5088555;28;20020;-81
2024/04/08 01:25:14;;;;;;;5.43;3.38;;;409.90;2227.20;;;;;;5089501;28;20040;-82
2024/04/08 01:27:40;;;;;;;9.88;3.40;;;409.90;2227.20;;;;;;5089354;28;20020;-80
2024/04/08 01:30:07;;;;;;;4.00;2.75;;;409.90;2227.20;;;;;;5090426;28;20032;-77
2024/04/08 01:32:32;;;;;;;4.40;2.70;;;409.60;2278.40;;;;;;5088122;28;20335;-81
2024/04/08 01:34:58;;;;;;;6.35;3.58;;;384.90;2278.40;;;;;;5089901;28;20024;-81
2024/04/08 01:37:24;;;;;;;4.78;3.47;;;384.90;2278.40;;;;;;5089186;28;20036;-74
2024/04/08 01:39:50;;;;;;;5.80;2.83;;;384.90;2304.00;;;;;;5089203;28;20040;-77
2024/04/08 01:42:16;;;;;;;3.90;2.42;;;409.60;2278.40;;;;;;5089405;28;20039;-77
2024/04/08 01:44:41;;;;;;;4.82;2.75;;;409.60;2278.40;;;;;;5089776;28;20020;-78
2024/04/08 01:47:07;;;;;;;4.72;3.03;;;384.90;2278.40;;;;;;5089624;28;20473;-74
2024/04/08 01:49:33;;;;;;;6.28;3.20;;;384.80;2278.40;;;;;;5075906;28;20028;-77
2024/04/08 01:51:59;;;;;;;5.07;2.65;;;384.80;2278.40;;;;;;5089773;28;20016;-78
2024/04/08 01:54:25;;;;;;;3.90;2.85;;;384.60;2304.00;;;;;;5089414;28;20020;-77
2024/04/08 01:56:51;;;;;;;5.30;3.60;;;384.60;2278.40;;;;;;5089153;28;20082;-81
2024/04/08 01:59:17;;;;;;;5.28;2.58;;;384.50;2304.00;;;;;;5088672;28;20440;-79
2024/04/08 02:01:42;;;;;;;5.05;3.03;;;384.50;2304.00;;;;;;5089654;28;20431;-80
2024/04/08 02:04:08;;;;;;;4.70;3.38;;;384.50;2329.60;;;;;;5088748;28;20051;-80
2024/04/08 02:06:34;;;;;;;4.70;2.75;;;384.50;2329.60;;;;;;5089498;28;20027;-80
2024/04/08 02:09:00;;;;;;;6.53;3.45;;;384.40;2329.60;;;;;;5086099;28;20044;-80
2024/04/08 02:11:26;;;;;;;4.65;2.55;;;384.40;2329.60;;;;;;5067908;28;20020;-79
2024/04/08 02:13:52;;;;;;;3.85;2.35;;;384.40;2329.60;;;;;;5083345;28;20049;-80
2024/04/08 02:16:18;;;;;;;4.97;2.80;;;384.40;2329.60;;;;;;5088486;28;20019;-76
2024/04/08 02:18:43;;;;;;;4.82;3.35;;;384.30;2329.60;;;;;;5088239;28;20117;-80
2024/04/08 02:21:12;;;;;;;6.15;2.85;;;384.20;2329.60;;;;;;5089314;28;20020;-80
2024/04/08 02:23:38;;;;;;;4.68;2.22;;;384.00;2329.60;;;;;;5087676;28;20035;-79
2024/04/08 02:26:04;;;;;;;6.47;2.90;;;384.00;2329.60;;;;;;5089232;28;20484;-77
2024/04/08 02:28:30;;;;;;;4.53;2.90;;;384.00;2329.60;;;;;;5087973;28;20103;-75
2024/04/08 02:31:03;;;;;;;3.92;2.50;;;384.00;2329.60;;;;;;5088722;28;20035;-78
2024/04/08 02:33:29;;;;;;;5.35;3.10;;;384.00;2329.60;;;;;;5088149;28;20092;-77
2024/04/08 02:36:01;;;;;;;4.32;3.20;;;359.30;2329.60;;;;;;5088781;28;20107;-77
2024/04/08 02:38:27;;;;;;;11.38;5.95;;;359.30;2329.60;;;;;;5087893;28;20048;-78
2024/04/08 02:40:53;;;;;;;18.73;10.27;;;359.30;2329.60;;;;;;5088825;28;20474;-78
2024/04/08 02:43:19;;;;;;;20.20;10.88;;;384.10;2329.60;;;;;;5087968;28;20053;-77
2024/04/08 02:45:45;;;;;;;11.27;6.30;;;384.00;2329.60;;;;;;5088536;28;20035;-76
2024/04/08 02:48:13;;;;;;;9.70;5.43;;;359.30;2329.60;;;;;;5087697;28;20028;-76
2024/04/08 02:50:39;;;;;;;6.40;4.15;;;359.10;2329.60;;;;;;5088604;28;20401;-80
2024/04/08 02:53:05;;;;;;;8.70;3.35;;;359.30;2329.60;;;;;;5087615;28;20422;-80
2024/04/08 02:55:31;;;;;;;6.85;3.00;;;359.30;2329.60;;;;;;5088584;28;20038;-81
2024/04/08 02:57:57;;;;;;;7.32;4.32;;;359.30;2329.60;;;;;;5087857;28;20377;-77
2024/04/08 03:00:24;;;;;;;5.40;3.60;;;359.20;2329.60;;;;;;5088630;28;20545;-78
2024/04/08 03:02:50;;;;;;;4.00;2.78;;;359.30;2329.60;;;;;;5087862;28;20404;-78
2024/04/08 03:05:15;;;;;;;5.82;2.92;;;359.20;2329.60;;;;;;5088500;28;20073;-80
2024/04/08 03:07:41;;;;;;;10.23;3.28;;;359.20;2329.60;;;;;;5087540;28;20442;-81
2024/04/08 03:10:08;;;;;;;9.43;3.28;;;359.20;2329.60;;;;;;5088903;28;20504;-78
2024/04/08 03:12:33;;;;;;;6.10;3.28;;;359.30;2329.60;;;;;;5087871;28;20024;-78
2024/04/08 03:14:59;;;;;;;4.70;2.92;;;359.30;2329.60;;;;;;5088561;28;20027;-78
2024/04/08 03:17:25;;;;;;;4.38;2.95;;;359.20;2329.60;;;;;;5087371;28;20024;-77
2024/04/08 03:19:53;;;;;;;6.35;3.42;;;359.30;2329.60;;;;;;5087923;28;20392;-78
2024/04/08 03:22:20;;;;;;;4.85;2.60;;;359.30;2329.60;;;;;;5087908;28;20016;-79
2024/04/08 03:24:46;;;;;;;6.75;3.08;;;384.00;2329.60;;;;;;5088524;28;20031;-79
2024/04/08 03:27:11;;;;;;;4.70;3.20;;;384.00;2329.60;;;;;;5087270;28;20016;-80
2024/04/08 03:29:37;;;;;;;5.93;3.30;;;384.00;2329.60;;;;;;5092581;28;20024;-80
2024/04/08 03:32:03;;;;;;;5.10;3.33;;;384.00;2329.60;;;;;;5078596;28;20020;-80
2024/04/08 03:34:31;;;;;;;6.97;3.33;;;384.00;2329.60;;;;;;5092475;28;20020;-80
2024/04/08 03:36:58;;;;;;;5.65;3.17;;;384.00;2329.60;;;;;;5090181;28;20016;-78
2024/04/08 03:39:24;;;;;;;7.85;3.53;;;359.30;2329.60;;;;;;5091757;28;20097;-80
2024/04/08 03:41:50;;;;;;;6.63;3.13;;;384.00;2329.60;;;;;;5091814;28;20020;-77
2024/04/08 03:44:16;;;;;;;4.82;3.13;;;359.30;2329.60;;;;;;5092338;28;20077;-77
2024/04/08 03:46:42;;;;;;;9.13;3.50;;;359.30;2329.60;;;;;;5091427;28;20020;-78
2024/04/08 03:49:08;;;;;;;8.00;3.63;;;359.30;2329.60;;;;;;5091938;28;20598;-77
2024/04/08 03:51:34;;;;;;;6.57;3.50;;;359.30;2329.60;;;;;;5091362;28;20095;-79
2024/04/08 03:53:59;;;;;;;8.00;3.45;;;359.20;2329.60;;;;;;5091790;28;20442;-79
2024/04/08 03:56:25;;;;;;;5.35;3.30;;;359.20;2329.60;;;;;;5089483;28;20074;-78
2024/04/08 03:58:51;;;;;;;5.95;3.80;;;359.10;2329.60;;;;;;5091456;28;20359;-79
2024/04/08 04:01:17;;;;;;;5.70;3.60;;;359.10;2329.60;;;;;;5090098;28;20114;-79
2024/04/08 04:03:43;;;;;;;7.05;5.75;;;359.00;2329.60;;;;;;5091391;28;20077;-80
2024/04/08 04:06:09;;;;;;;6.07;4.18;;;359.10;2329.60;;;;;;5090843;28;20081;-79
2024/04/08 04:08:35;;;;;;;11.88;5.47;;;359.10;2329.60;;;;;;5091713;28;20032;-77
2024/04/08 04:11:01;;;;;;;9.75;5.38;;;359.00;2329.60;;;;;;5090805;28;20385;-77
2024/04/08 04:13:27;;;;;;;7.88;4.50;;;359.00;2329.60;;;;;;5080194;28;20023;-80
2024/04/08 04:15:54;;;;;;;5.38;3.25;;;359.00;2329.60;;;;;;5090578;28;20024;-78
2024/04/08 04:18:20;;;;;;;5.53;3.45;;;359.10;2329.60;;;;;;5091595;28;20024;-78
2024/04/08 04:20:46;;;;;;;4.38;2.97;;;359.30;2329.60;;;;;;5090324;28;20036;-79
2024/04/08 04:23:16;;;;;;;5.18;2.78;;;384.00;2329.60;;;;;;5090940;28;20424;-80
2024/04/08 04:25:42;;;;;;;6.18;3.22;;;384.10;2329.60;;;;;;5090757;28;20018;-77
2024/04/08 04:28:08;;;;;;;6.05;3.22;;;384.20;2329.60;;;;;;5091004;28;20381;-77
2024/04/08 04:30:34;;;;;;;7.57;3.00;;;384.20;2329.60;;;;;;5064240;28;20474;-77
2024/04/08 04:33:03;;;;;;;7.13;3.30;;;384.30;2329.60;;;;;;5091162;28;20059;-78
2024/04/08 04:35:29;;;;;;;4.53;2.90;;;384.30;2329.60;;;;;;5063330;28;20111;-79
2024/04/08 04:37:56;;;;;;;4.88;3.28;;;384.30;2304.00;;;;;;5089530;28;20040;-80
2024/04/08 04:40:22;;;;;;;5.15;2.80;;;384.30;2304.00;;;;;;5086837;28;20028;-80
2024/04/08 04:42:48;;;;;;;5.20;3.72;;;384.40;2304.00;;;;;;5089870;28;20118;-79
2024/04/08 04:45:14;;;;;;;8.45;3.60;;;384.40;2278.40;;;;;;5089169;28;20062;-80
2024/04/08 04:47:40;;;;;;;9.00;4.10;;;384.50;2278.40;;;;;;5090184;28;20531;-80
2024/04/08 04:50:06;;;;;;;9.25;4.72;;;384.60;2278.40;;;;;;5089891;28;20028;-80
2024/04/08 04:52:33;;;;;;;15.32;3.85;;;384.60;2278.40;;;;;;5089975;28;20025;-78
2024/04/08 04:54:59;;;;;;;10.48;4.03;;;384.70;2252.80;;;;;;5090448;28;20020;-80
2024/04/08 04:57:25;;;;;;;8.68;3.22;;;384.70;2252.80;;;;;;5089723;28;20032;-79
2024/04/08 04:59:51;;;;;;;5.80;2.97;;;384.90;2252.80;;;;;;5089969;28;20039;-79
2024/04/08 05:02:17;;;;;;;5.18;3.58;;;384.90;2227.20;;;;;;5089590;28;20024;-78
2024/04/08 05:04:44;;;;;;;8.10;4.07;;;384.90;2227.20;;;;;;5089224;28;20331;-78
2024/04/08 05:07:10;;;;;;;4.60;3.90;;;409.60;2252.80;;;;;;5086452;28;20540;-78
2024/04/08 05:09:37;;;;;;;8.25;4.93;;;436.00;2124.80;;;;;;5090168;28;20028;-80
2024/04/08 05:12:04;;;;;;;10.98;5.22;;;512.60;1868.80;;;;;;5090305;28;20017;-78
2024/04/08 05:14:30;;;;;;;5.93;4.30;;;564.10;1715.20;;;;;;5090356;28;20055;-78
2024/04/08 05:16:55;;;;;;;8.57;4.65;;;614.50;1612.80;;;;;;5089676;28;20093;-79
2024/04/08 05:19:21;;;;;;;7.38;4.60;;;640.40;1536.00;;;;;;5088235;28;20067;-78
2024/04/08 05:21:48;;;;;;;6.85;4.47;;;691.30;1459.20;;;;;;5090167;28;20420;-81
2024/04/08 05:24:14;;;;;;;8.57;5.30;;;665.60;1484.80;;;;;;5090028;28;20024;-77
2024/04/08 05:26:40;;;;;;;6.10;4.05;;;691.40;1433.60;;;;;;5089846;28;20031;-78
2024/04/08 05:29:06;;;;;;;8.88;4.53;;;666.30;1459.20;;;;;;5086934;28;20020;-76
2024/04/08 05:31:32;;;;;;;7.85;4.18;;;615.10;1536.00;;;;;;5085286;28;20047;-76
2024/04/08 05:33:58;;;;;;;9.55;5.00;;;614.50;1561.60;;;;;;5090108;28;20022;-76
2024/04/08 05:36:23;;;;;;;7.72;5.20;;;615.10;1536.00;;;;;;5089188;28;20461;-76
2024/04/08 05:38:49;;;;;;;8.88;5.72;;;665.60;1484.80;;;;;;5088702;28;20048;-76
2024/04/08 05:41:15;;;;;;;12.52;5.57;;;666.50;1433.60;;;;;;5089509;28;20036;-76
2024/04/08 05:43:41;;;;;;;10.02;6.30;;;691.40;1408.00;;;;;;5088312;28;20039;-75
2024/04/08 05:46:07;;;;;;;8.02;6.60;;;691.80;1382.40;;;;;;5089347;28;20020;-76
2024/04/08 05:48:32;;;;;;;7.32;6.63;;;717.30;1382.40;;;;;;5089227;28;20028;-76
2024/04/08 05:50:58;;;;;;;8.60;7.28;;;742.90;1331.20;;;;;;5089111;28;20072;-76
2024/04/08 05:53:24;;;;;;;9.90;6.85;;;768.40;1305.60;;;;;;5089276;28;20099;-76
2024/04/08 05:55:51;;;;;;;12.35;7.57;;;793.70;1280.00;;;;;;5089151;28;20536;-76
2024/04/08 05:58:17;;;;;;;18.42;8.57;;;794.50;1254.40;;;;;;5089656;28;20015;-76
2024/04/08 06:00:43;;;;;;;12.13;6.68;;;819.80;1228.80;;;;;;5088036;28;20075;-77
2024/04/08 06:03:09;;;;;;;10.52;6.63;;;820.10;1203.20;;;;;;5089011;28;20047;-76
2024/04/08 06:05:34;;;;;;;8.80;6.78;;;819.60;1228.80;;;;;;5088588;28;20107;-77
2024/04/08 06:08:00;;;;;;;11.60;9.02;;;845.30;1203.20;;;;;;5088714;28;20067;-77
2024/04/08 06:10:30;;;;;;;7.72;6.35;;;870.40;1152.00;;;;;;5088905;28;20039;-76
2024/04/08 06:12:57;;;;;;;8.00;7.15;;;870.90;1126.40;;;;;;5088793;28;20016;-77
2024/04/08 06:15:23;;;;;;;7.00;6.25;;;871.30;1075.20;;;;;;5088957;28;20470;-78
2024/04/08 06:17:49;;;;;;;12.27;8.15;;;896.50;1049.60;;;;;;5063349;28;20445;-77
2024/04/08 06:20:15;;;;;;;12.32;8.55;;;896.10;1075.20;;;;;;5088199;28;20055;-80
2024/04/08 06:22:41;;;;;;;9.75;7.35;;;896.40;1075.20;;;;;;5089047;28;20048;-81
2024/04/08 06:25:09;;;;;;;9.15;6.78;;;921.90;1075.20;;;;;;5088605;28;20032;-77
2024/04/08 06:27:35;;;;;;;14.90;6.70;;;896.90;1049.60;;;;;;5088422;28;20020;-78
2024/04/08 06:30:02;;;;;;;10.05;5.57;;;896.20;1049.60;;;;;;5087395;28;20053;-78
2024/04/08 06:32:28;;;;;;;7.50;5.88;;;921.60;1075.20;;;;;;5076073;28;20024;-76
2024/04/08 06:34:54;;;;;;;8.65;6.00;;;921.70;1049.60;;;;;;5087152;28;20421;-75
2024/04/08 06:37:20;;;;;;;6.72;6.00;;;922.10;1049.60;;;;;;5088531;28;20102;-75
2024/04/08 06:39:46;;;;;;;8.45;6.45;;;947.70;998.40;;;;;;5088250;28;20040;-72
2024/04/08 06:42:19;;;;;;;12.82;6.43;;;;;;;;;;5081254;28;20020;-78
2024/04/08 06:44:51;;;;;;;6.95;6.30;;;973.10;998.40;;;;;;5087517;28;20089;-77
2024/04/08 06:47:19;;;;;;;18.25;8.07;;;948.10;998.40;;;;;;5088937;28;20016;-80
2024/04/08 06:49:46;;;;;;;13.23;7.60;;;998.50;972.80;;;;;;5086825;28;20508;-81
2024/04/08 06:52:12;;;;;;;11.20;6.53;;;973.50;972.80;;;;;;5088194;28;20025;-78
2024/04/08 06:54:38;;;;;;;11.80;6.75;;;999.00;972.80;;;;;;5080249;28;20024;-77
2024/04/08 06:57:04;;;;;;;11.70;7.55;;;1024.40;947.20;;;;;;5078126;28;20047;-79
2024/04/08 06:59:30;;;;;;;10.70;7.32;;;1050.30;947.20;;;;;;5088220;28;20478;-80
2024/04/08 07:01:56;;;;;;;12.95;7.65;;;1050.40;947.20;;;;;;5087479;28;20122;-79
2024/04/08 07:04:22;;;;;;;10.77;8.15;;;1075.70;921.60;;;;;;5083649;28;20462;-80
2024/04/08 07:06:48;;;;;;;12.88;8.43;;;1075.90;921.60;;;;;;5085013;28;20094;-80
2024/04/08 07:09:14;;;;;;;9.85;8.43;;;1101.10;921.60;;;;;;5084146;28;20142;-78
2024/04/08 07:11:40;;;;;;;8.73;7.53;;;1101.70;896.00;;;;;;5086133;28;20521;-82
2024/04/08 07:14:08;;;;;;;9.65;8.55;;;1101.60;896.00;;;;;;5087646;28;20024;-81
2024/04/08 07:16:35;;;;;;;8.82;8.02;;;1101.70;896.00;;;;;;5088364;28;20027;-82
2024/04/08 07:19:01;;;;;;;10.45;8.48;;;1126.40;896.00;;;;;;5087741;28;20047;-79
2024/04/08 07:21:27;;;;;;;17.42;9.32;;;1126.60;896.00;;;;;;5088310;28;20030;-78
2024/04/08 07:23:53;;;;;;;9.38;7.53;;;1101.70;896.00;;;;;;5086773;28;20462;-82
2024/04/08 07:26:19;;;;;;;9.32;8.43;;;1127.00;844.80;;;;;;5088156;28;20039;-83
2024/04/08 07:28:45;;;;;;;9.70;8.80;;;1152.10;844.80;;;;;;5087748;28;20111;-80
2024/04/08 07:31:11;;;;;;;13.23;8.55;;;1152.10;844.80;;;;;;5086023;28;20032;-72
2024/04/08 07:33:37;;;;;;;12.68;9.00;;;1126.90;896.00;;;;;;5078792;28;20028;-71
2024/04/08 07:36:03;;;;;;;10.40;7.97;;;1152.10;844.80;;;;;;5077947;28;20028;-77
2024/04/08 07:38:29;;;;;;;8.95;7.65;;;1152.70;819.20;;;;;;5084012;28;20052;-73
2024/04/08 07:40:55;;;;;;;8.32;7.13;;;1178.30;768.00;;;;;;5083423;28;21654;-76
2024/04/08 07:43:20;;;;;;;9.90;7.55;;;1152.90;793.60;;;;;;5078540;28;20036;-74
2024/04/08 07:45:46;;;;;;;10.55;7.85;;;1177.80;768.00;;;;;;5087402;28;20020;-73
2024/04/08 07:48:12;;;;;;;9.20;8.18;;;1178.10;793.60;;;;;;5083084;28;20052;-72
2024/04/08 07:50:38;;;;;;;8.35;7.47;;;1177.80;768.00;;;;;;5087115;28;20055;-75
2024/04/08 07:53:04;;;;;;;8.75;7.93;;;1178.50;768.00;;;;;;5087835;28;20021;-73
2024/04/08 07:55:30;;;;;;;15.88;9.07;;;1203.30;793.60;;;;;;5087033;28;20529;-76
2024/04/08 07:57:56;;;;;;;7.00;6.35;;;1178.50;742.40;;;;;;5087980;28;20059;-72
2024/04/08 08:00:22;;;;;;;8.52;6.05;;;1178.50;716.80;;;;;;5086078;28;20028;-77
2024/04/08 08:02:48;;;;;;;6.68;6.18;;;1152.00;742.40;;;;;;5086356;28;20028;-74
2024/04/08 08:05:14;;;;;;;5.97;5.47;;;1152.00;742.40;;;;;;5078555;28;20047;-75
2024/04/08 08:07:40;;;;;;;5.97;5.05;;;1152.00;742.40;;;;;;5080546;28;20491;-71
2024/04/08 08:10:07;;;;;;;7.03;6.32;;;1152.40;716.80;;;;;;5080389;28;20093;-72
2024/04/08 08:12:32;;;;;;;8.00;5.75;;;1152.70;742.40;;;;;;5087380;28;20015;-74
2024/04/08 08:14:58;;;;;;;5.90;5.25;;;1152.20;742.40;;;;;;5087451;28;20031;-73
2024/04/08 08:17:28;;;;;;;6.45;5.85;;;1178.50;691.20;;;;;;5090857;28;20171;-78
2024/04/08 08:19:55;;;;;;;8.18;5.90;;;1152.60;716.80;;;;;;5090207;28;20059;-79
2024/04/08 08:22:22;;;;;;;6.70;6.20;;;1177.70;716.80;;;;;;5090738;28;20026;-74
2024/04/08 08:24:49;;;;;;;10.38;5.88;;;1178.20;716.80;;;;;;5089674;28;20020;-79
2024/04/08 08:27:14;;;;;;;6.78;6.15;;;1152.50;742.40;;;;;;5091247;28;20511;-73
2024/04/08 08:29:40;;;;;;;6.50;5.93;;;1177.80;742.40;;;;;;5090588;28;20030;-80
2024/04/08 08:32:06;;;;;;;6.55;5.95;;;1152.50;742.40;;;;;;5091365;28;20095;-81
2024/04/08 08:34:32;;;;;;;5.97;5.47;;;1152.40;716.80;;;;;;5090016;28;20030;-79
2024/04/08 08:36:58;;;;;;;8.68;5.95;;;1127.00;768.00;;;;;;5089699;28;20028;-76
2024/04/08 08:39:24;;;;;;;5.75;5.35;;;1101.10;768.00;;;;;;5090242;28;20051;-72
2024/04/08 08:41:54;;;;;;;5.72;5.22;;;1075.90;742.40;;;;;;5090847;28;20052;-74
2024/04/08 08:44:20;;;;;;;7.25;5.40;;;1075.50;793.60;;;;;;5090786;28;20020;-81
2024/04/08 08:46:48;;;;;;;5.28;4.88;;;1049.80;819.20;;;;;;5090566;28;20097;-76
2024/04/08 08:49:16;;;;;;;5.38;4.93;;;973.40;819.20;;;;;;5090364;28;20035;-72
2024/04/08 08:51:42;;;;;;;5.90;3.60;;;948.00;819.20;;;;;;5086986;28;20494;-72
2024/04/08 08:54:09;;;;;;;4.22;3.22;;;896.90;870.40;;;;;;5090481;28;20030;-79
2024/04/08 08:56:35;;;;;;;4.18;2.88;;;870.90;896.00;;;;;;5090704;28;20031;-79
2024/04/08 08:59:03;;;;;;;4.18;2.35;;;870.50;921.60;;;;;;5089752;28;20409;-77
2024/04/08 09:01:33;;;;;;;4.50;2.60;;;845.10;947.20;;;;;;5090414;28;20039;-72
2024/04/08 09:04:04;;;;;;;4.75;3.15;;;819.70;972.80;;;;;;5090490;28;20386;-77
2024/04/08 09:06:30;;;;;;;3.08;2.55;;;819.40;972.80;;;;;;5085814;28;20031;-74
2024/04/08 09:08:56;;;;;;;3.72;2.55;;;794.30;947.20;;;;;;5089112;28;20103;-74
2024/04/08 09:11:22;;;;;;;6.85;2.80;;;768.80;972.80;;;;;;5089991;28;20044;-75
2024/04/08 09:13:49;;;;;;;3.83;2.75;;;768.60;998.40;;;;;;5089459;28;20146;-76
2024/04/08 09:16:21;;;;;;;4.10;2.55;;;768.40;998.40;;;;;;5090035;28;20035;-79
2024/04/08 09:18:47;;;;;;;3.25;2.17;;;768.00;998.40;;;;;;5089117;28;20020;-79
2024/04/08 09:21:13;;;;;;;4.38;2.40;;;768.10;1049.60;;;;;;5088101;28;20043;-74
2024/04/08 09:23:42;;;;;;;3.58;2.47;;;743.30;1024.00;;;;;;5089033;28;20031;-78
2024/04/08 09:26:09;;;;;;;3.42;2.35;;;742.70;1049.60;;;;;;5089350;28;20028;-75
2024/04/08 09:28:35;;;;;;;5.35;2.65;;;742.70;1075.20;;;;;;5088756;28;20464;-79
2024/04/08 09:31:01;;;;;;;5.00;3.15;;;742.50;1075.20;;;;;;5089062;28;20497;-74
2024/04/08 09:33:28;;;;;;;6.88;3.20;;;742.50;1075.20;;;;;;5088696;28;20461;-79
2024/04/08 09:35:55;;;;;;;3.78;2.53;;;717.70;1049.60;;;;;;5089466;28;20458;-72
2024/04/08 09:38:22;;;;;;;4.68;2.63;;;742.50;1100.80;;;;;;5086236;28;20040;-73
2024/04/08 09:40:50;;;;;;;6.63;2.67;;;742.50;1075.20;;;;;;5072618;28;20130;-74
2024/04/08 09:43:16;;;;;;;4.43;2.60;;;717.70;1075.20;;;;;;5086869;28;20032;-75
2024/04/08 09:45:43;;;;;;;5.10;3.05;;;742.60;1126.40;;;;;;5088792;28;20020;-76
2024/04/08 09:48:13;;;;;;;7.88;2.83;;;717.50;1100.80;;;;;;5088956;28;20016;-75
2024/04/08 09:50:42;;;;;;;4.32;2.60;;;717.10;1126.40;;;;;;5089216;28;20112;-76
2024/04/08 09:53:09;;;;;;;5.45;2.78;;;742.40;1126.40;;;;;;5062918;28;20478;-75
2024/04/08 09:55:40;;;;;;;5.55;2.58;;;717.70;1075.20;;;;;;5089371;28;20055;-75
2024/04/08 09:58:08;;;;;;;6.03;2.67;;;742.40;1100.80;;;;;;5087574;28;20566;-73
2024/04/08 10:00:36;;;;;;;4.43;2.50;;;742.50;1177.60;;;;;;5088428;28;20073;-74
2024/04/08 10:03:10;;;;;;;4.13;3.00;;;717.70;1100.80;;;;;;5087838;28;20111;-77
2024/04/08 10:05:37;;;;;;;4.55;2.70;;;717.70;1152.00;;;;;;5088181;28;20036;-76
2024/04/08 10:08:03;;;;;;;4.70;2.70;;;717.50;1126.40;;;;;;5088651;28;20410;-74
2024/04/08 10:10:30;;;;;;;4.95;2.85;;;717.50;1126.40;;;;;;5088381;28;20036;-77
2024/04/08 10:12:59;;;;;;;3.72;2.50;;;717.00;1152.00;;;;;;5088420;28;20020;-75
2024/04/08 10:15:31;;;;;;;9.13;3.17;;;717.40;1152.00;;;;;;5086277;28;20029;-79
2024/04/08 10:17:57;;;;;;;6.50;3.40;;;717.00;1177.60;;;;;;5088556;28;20024;-75
2024/04/08 10:20:25;;;;;;;5.50;2.60;;;717.00;1152.00;;;;;;5083815;28;20028;-75
2024/04/08 10:22:51;;;;;;;6.78;2.97;;;717.00;1177.60;;;;;;5082666;28;20085;-75
2024/04/08 10:25:48;;;;;;;6.88;4.18;;;717.10;1152.00;;;;;;5081683;28;20020;-74
2024/04/08 10:28:17;;;;;;;5.45;3.10;;;716.80;1152.00;;;;;;5079422;28;20053;-72
2024/04/08 10:30:46;;;;;;;7.10;3.25;;;692.10;1126.40;;;;;;5083633;28;20020;-75
2024/04/08 10:33:13;;;;;;;3.65;2.70;;;717.10;1177.60;;;;;;5084707;28;20049;-78
2024/04/08 10:35:39;;;;;;;5.07;3.28;;;716.90;1177.60;;;;;;5085181;28;20077;-73
2024/04/08 10:38:08;;;;;;;5.10;2.60;;;716.80;1152.00;;;;;;5087452;28;20048;-77
2024/04/08 10:40:33;;;;;;;8.10;3.13;;;716.80;1177.60;;;;;;5086998;28;20386;-73
2024/04/08 10:42:59;;;;;;;5.63;3.13;;;691.90;1177.60;;;;;;5088297;28;20016;-75
2024/04/08 10:45:26;;;;;;;3.85;2.92;;;692.00;1152.00;;;;;;5087434;28;20024;-73
2024/04/08 10:47:59;;;;;;;5.88;3.03;;;691.90;1152.00;;;;;;5086005;28;20363;-78
2024/04/08 10:50:27;;;;;;;6.88;2.83;;;691.80;1152.00;;;;;;5082743;28;20067;-76
2024/04/08 10:52:54;;;;;;;4.00;2.42;;;692.10;1152.00;;;;;;5079854;28;20031;-78
2024/04/08 10:55:20;;;;;;;9.70;3.85;;;691.60;1152.00;;;;;;5088330;28;20024;-73
2024/04/08 10:57:46;;;;;;;5.05;2.40;;;691.80;1177.60;;;;;;5087540;28;20020;-78
2024/04/08 11:00:12;;;;;;;6.65;3.22;;;691.90;1177.60;;;;;;5087061;28;20081;-71
2024/04/08 11:02:41;;;;;;;5.05;2.53;;;692.00;1152.00;;;;;;5087860;28;20017;-79
2024/04/08 11:05:09;;;;;;;5.90;3.25;;;691.90;1152.00;;;;;;5074936;28;20029;-76
2024/04/08 11:07:38;;;;;;;4.75;2.92;;;691.60;1152.00;;;;;;5086727;28;20486;-72
2024/04/08 11:10:08;;;;;;;6.10;4.45;;;691.90;1152.00;;;;;;5087410;28;20043;-76
2024/04/08 11:12:34;;;;;;;4.72;3.58;;;692.10;1152.00;;;;;;5088081;28;20034;-74
2024/04/08 11:15:04;;;;;;;8.60;3.15;;;692.00;1126.40;;;;;;5087548;28;20020;-76
2024/04/08 11:17:32;;;;;;;4.72;3.13;;;691.90;1152.00;;;;;;5080142;28;20021;-76
2024/04/08 11:20:00;;;;;;;4.20;3.22;;;692.00;1152.00;;;;;;5086733;28;20035;-78
2024/04/08 11:22:26;;;;;;;5.13;4.10;;;692.00;1126.40;;;;;;5087672;28;20031;-79
2024/04/08 11:24:57;;;;;;;5.65;3.20;;;692.00;1152.00;;;;;;5086724;28;20111;-78
2024/04/08 11:27:24;;;;;;;5.25;3.63;;;691.90;1152.00;;;;;;5086173;28;20020;-77
2024/04/08 11:29:50;;;;;;;4.68;3.40;;;691.90;1152.00;;;;;;5087921;28;20024;-79
2024/04/08 11:32:16;;;;;;;4.57;3.05;;;692.00;1152.00;;;;;;5088175;28;20263;-71
2024/04/08 11:34:42;;;;;;;6.43;2.92;;;691.90;1152.00;;;;;;5087632;28;20027;-77
2024/04/08 11:37:12;;;;;;;5.05;3.35;;;692.10;1126.40;;;;;;5087586;28;20051;-77
2024/04/08 11:39:40;;;;;;;8.35;2.92;;;692.10;1152.00;;;;;;5087628;28;20112;-74
2024/04/08 11:42:07;;;;;;;6.28;3.28;;;692.00;1126.40;;;;;;5084239;28;20508;-74
2024/04/08 11:44:34;;;;;;;3.97;2.85;;;716.80;1177.60;;;;;;5088065;28;20043;-74
2024/04/08 11:47:01;;;;;;;4.57;3.20;;;716.90;1177.60;;;;;;5087851;28;20035;-75
2024/04/08 11:49:27;;;;;;;4.45;2.83;;;716.80;1177.60;;;;;;5089848;28;20027;-77
2024/04/08 11:51:53;;;;;;;4.85;2.85;;;716.90;1152.00;;;;;;5088486;28;20024;-72
2024/04/08 11:54:19;;;;;;;5.68;3.60;;;717.00;1177.60;;;;;;5091840;28;20078;-76
2024/04/08 11:56:45;;;;;;;5.18;2.85;;;717.10;1177.60;;;;;;5091182;28;20062;-77
2024/04/08 11:59:11;;;;;;;8.75;3.22;;;717.20;1177.60;;;;;;5091552;28;20055;-73
2024/04/08 12:01:37;;;;;;;5.68;3.03;;;717.20;1152.00;;;;;;5091583;28;20051;-74
2024/04/08 12:04:04;;;;;;;6.28;3.40;;;717.20;1152.00;;;;;;5091385;28;20035;-71
2024/04/08 12:06:29;;;;;;;7.68;4.05;;;717.20;1152.00;;;;;;5091106;28;20042;-71
2024/04/08 12:08:56;;;;;;;6.47;3.63;;;717.40;1152.00;;;;;;5091721;28;20036;-76
2024/04/08 12:11:23;;;;;;;7.07;3.58;;;717.10;1152.00;;;;;;5090134;28;20016;-70
2024/04/08 12:13:50;;;;;;;8.13;3.38;;;717.10;1152.00;;;;;;5091164;28;20031;-78
2024/04/08 12:16:16;;;;;;;5.20;3.50;;;717.30;1152.00;;;;;;5090757;28;20536;-80